Crew | Aerofun Virtual



 METAR AND TAF INFORMATION
METAR FOR NTAA
ADDS - METARS form results

(2248 UTC 25 August 2019)
Data provider http://aviationweather.gov/metar/data/
 
METAR text: NTAA 252230Z 03008KT 9999 FEW030 29/21 Q1014 NOSIG
Conditions at: NTAA (TAHITI-FAAA POLY, WS) observed 2230 UTC 25 August 2019
Temperature: 29.0°C (84°F)
Dewpoint: 21.0°C (70°F) [RH = 62%]
Pressure (altimeter): 29.94 inches Hg (1014.0 mb)
Winds: from the NNE (30 degrees) at 9 MPH (8 knots; 4.1 m/s)
Visibility: 6 or more miles (10+ km)
Ceiling: at least 12,000 feet AGL
Clouds: few clouds at 3000 feet AGL
Weather: no significant weather observed at this time

METAR text: NTAA 252200Z 02007KT 9999 FEW030 28/20 Q1015 NOSIG
Conditions at: NTAA (TAHITI-FAAA POLY, WS) observed 2200 UTC 25 August 2019
Temperature: 28.0°C (82°F)
Dewpoint: 20.0°C (68°F) [RH = 62%]
Pressure (altimeter): 29.97 inches Hg (1015.0 mb)
Winds: from the NNE (20 degrees) at 8 MPH (7 knots; 3.6 m/s)
Visibility: 6 or more miles (10+ km)
Ceiling: at least 12,000 feet AGL
Clouds: few clouds at 3000 feet AGL
Weather: no significant weather observed at this time

Forecast for: NTAA (TAHITI-FAAA POLY, WS)
Text: TAF NTAA 251700Z 2518/2624 VRB03KT 9999 FEW025
Forecast period: 1800 UTC 25 August 2019 to 0000 UTC 27 August 2019
Forecast type: FROM: standard forecast or significant change
Winds: variable direction winds at 3 MPH (3 knots; 1.5 m/s)
Visibility: 6 or more miles 10+ km)
Ceiling: at least 12,000 feet AGL
Clouds: few clouds at 2500 feet AGL
Weather: no significant weather forecast for this period
Text: TEMPO 2520/2602 04013KT
Forecast period: 2000 UTC 25 August 2019 to 0200 UTC 26 August 2019
Forecast type: TEMPORARY: The following changes expected for less than half the time period
Winds: from the NE (40 degrees) at 15 MPH (13 knots; 6.7 m/s)
Visibility: missing
Ceiling: unknown
Clouds: missing
Weather: no significant weather forecast for this period

 AIRPORT MAP

 RUNWAY INFORMATION
Runway 04 Runway length 11360 ft Runway width 148 ft
Runway elevation 5 ft Runway displaced threshold 1120 ft Runway heading 54
Runway 22 Runway length 11360 ft Runway width 148 ft
Runway elevation 5 ft Runway displaced threshold 390 ft Runway heading 234

 AIRPORT FREQUENCIES
Type APP Name APP Frequency 118.1 MHZ
Type ATIS Name ATIS Frequency 128.8 MHZ
Type GND Name GND Frequency 121.9 MHZ
Type TWR Name TWR Frequency 118.1 MHZ

 AIRPORT NEAR NAVIGATION AIDS
Type NDB Name Tahiti Faaa Frequency 305 KHZ
Type VOR-DME Name Tahiti Faaa Frequency 112900 KHZ